sensor_id;sensor_type;location;lat;lon;timestamp;temperature;humidity
11538;DHT22;50159;49.426;11.182;2023-06-14T00:02:00;14.90;60.90
11538;DHT22;50159;49.426;11.182;2023-06-14T00:04:27;15.00;61.30
11538;DHT22;50159;49.426;11.182;2023-06-14T00:06:55;15.00;60.60
11538;DHT22;50159;49.426;11.182;2023-06-14T00:09:23;15.00;60.50
11538;DHT22;50159;49.426;11.182;2023-06-14T00:11:49;15.10;60.40
11538;DHT22;50159;49.426;11.182;2023-06-14T00:14:16;15.10;60.40
11538;DHT22;50159;49.426;11.182;2023-06-14T00:16:43;15.10;60.50
11538;DHT22;50159;49.426;11.182;2023-06-14T00:19:10;15.10;60.30
11538;DHT22;50159;49.426;11.182;2023-06-14T00:21:38;15.10;60.30
11538;DHT22;50159;49.426;11.182;2023-06-14T00:24:05;15.10;60.40
11538;DHT22;50159;49.426;11.182;2023-06-14T00:26:32;15.10;60.30
11538;DHT22;50159;49.426;11.182;2023-06-14T00:28:59;15.10;60.70
11538;DHT22;50159;49.426;11.182;2023-06-14T00:31:26;15.00;60.80
11538;DHT22;50159;49.426;11.182;2023-06-14T00:33:52;15.00;61.00
11538;DHT22;50159;49.426;11.182;2023-06-14T00:36:19;15.00;61.10
11538;DHT22;50159;49.426;11.182;2023-06-14T00:38:46;15.00;61.30
11538;DHT22;50159;49.426;11.182;2023-06-14T00:41:12;14.90;61.60
11538;DHT22;50159;49.426;11.182;2023-06-14T00:43:39;14.90;62.40
11538;DHT22;50159;49.426;11.182;2023-06-14T00:46:06;14.70;62.80
11538;DHT22;50159;49.426;11.182;2023-06-14T00:48:33;14.60;63.60
11538;DHT22;50159;49.426;11.182;2023-06-14T00:51:00;14.50;64.30
11538;DHT22;50159;49.426;11.182;2023-06-14T00:53:31;14.30;64.70
11538;DHT22;50159;49.426;11.182;2023-06-14T00:56:00;14.30;65.20
11538;DHT22;50159;49.426;11.182;2023-06-14T00:58:27;14.20;65.60
11538;DHT22;50159;49.426;11.182;2023-06-14T01:00:57;14.20;66.10
11538;DHT22;50159;49.426;11.182;2023-06-14T01:03:24;14.10;67.40
11538;DHT22;50159;49.426;11.182;2023-06-14T01:05:59;14.00;66.90
11538;DHT22;50159;49.426;11.182;2023-06-14T01:09:03;14.00;67.40
11538;DHT22;50159;49.426;11.182;2023-06-14T01:11:32;13.90;67.50
11538;DHT22;50159;49.426;11.182;2023-06-14T01:14:02;13.80;67.90
11538;DHT22;50159;49.426;11.182;2023-06-14T01:16:30;13.70;67.90
11538;DHT22;50159;49.426;11.182;2023-06-14T01:18:58;13.70;68.20
11538;DHT22;50159;49.426;11.182;2023-06-14T01:21:26;13.60;68.40
11538;DHT22;50159;49.426;11.182;2023-06-14T01:23:54;13.60;68.60
11538;DHT22;50159;49.426;11.182;2023-06-14T01:26:22;13.50;68.90
11538;DHT22;50159;49.426;11.182;2023-06-14T01:28:50;13.40;69.10
11538;DHT22;50159;49.426;11.182;2023-06-14T01:31:19;13.40;69.60
11538;DHT22;50159;49.426;11.182;2023-06-14T01:33:52;13.40;70.00
11538;DHT22;50159;49.426;11.182;2023-06-14T01:36:19;13.40;70.20
11538;DHT22;50159;49.426;11.182;2023-06-14T01:38:48;13.40;69.90
11538;DHT22;50159;49.426;11.182;2023-06-14T01:41:17;13.40;69.30
11538;DHT22;50159;49.426;11.182;2023-06-14T01:43:45;13.50;69.50
11538;DHT22;50159;49.426;11.182;2023-06-14T01:46:14;13.50;69.60
11538;DHT22;50159;49.426;11.182;2023-06-14T01:48:42;13.60;69.80
11538;DHT22;50159;49.426;11.182;2023-06-14T01:51:09;13.70;69.70
11538;DHT22;50159;49.426;11.182;2023-06-14T01:53:35;13.70;69.30
11538;DHT22;50159;49.426;11.182;2023-06-14T01:56:02;13.70;69.20
11538;DHT22;50159;49.426;11.182;2023-06-14T01:58:30;13.70;69.10
11538;DHT22;50159;49.426;11.182;2023-06-14T02:00:57;13.60;69.40
11538;DHT22;50159;49.426;11.182;2023-06-14T02:03:24;13.60;69.80
11538;DHT22;50159;49.426;11.182;2023-06-14T02:05:52;13.60;70.40
11538;DHT22;50159;49.426;11.182;2023-06-14T02:08:18;13.50;70.20
11538;DHT22;50159;49.426;11.182;2023-06-14T02:10:45;13.40;70.60
11538;DHT22;50159;49.426;11.182;2023-06-14T02:13:12;13.40;70.80
11538;DHT22;50159;49.426;11.182;2023-06-14T02:15:39;13.30;71.50
11538;DHT22;50159;49.426;11.182;2023-06-14T02:18:06;13.20;71.70
11538;DHT22;50159;49.426;11.182;2023-06-14T02:20:33;13.10;72.10
11538;DHT22;50159;49.426;11.182;2023-06-14T02:23:00;13.10;72.90
11538;DHT22;50159;49.426;11.182;2023-06-14T02:25:27;13.00;73.20
11538;DHT22;50159;49.426;11.182;2023-06-14T02:27:55;12.90;73.60
11538;DHT22;50159;49.426;11.182;2023-06-14T02:30:22;12.90;74.70
11538;DHT22;50159;49.426;11.182;2023-06-14T02:32:48;12.80;75.80
11538;DHT22;50159;49.426;11.182;2023-06-14T02:35:17;12.70;76.70
11538;DHT22;50159;49.426;11.182;2023-06-14T02:37:44;12.60;77.90
11538;DHT22;50159;49.426;11.182;2023-06-14T02:40:11;12.50;79.40
11538;DHT22;50159;49.426;11.182;2023-06-14T02:42:38;12.50;80.60
11538;DHT22;50159;49.426;11.182;2023-06-14T02:45:05;12.50;82.00
11538;DHT22;50159;49.426;11.182;2023-06-14T02:47:32;12.40;82.50
11538;DHT22;50159;49.426;11.182;2023-06-14T02:49:59;12.40;83.20
11538;DHT22;50159;49.426;11.182;2023-06-14T02:52:26;12.30;83.90
11538;DHT22;50159;49.426;11.182;2023-06-14T02:54:53;12.20;84.50
11538;DHT22;50159;49.426;11.182;2023-06-14T02:57:21;12.20;85.50
11538;DHT22;50159;49.426;11.182;2023-06-14T02:59:48;12.20;85.90
11538;DHT22;50159;49.426;11.182;2023-06-14T03:02:15;12.10;86.20
11538;DHT22;50159;49.426;11.182;2023-06-14T03:04:42;12.00;86.40
11538;DHT22;50159;49.426;11.182;2023-06-14T03:07:11;12.00;86.90
11538;DHT22;50159;49.426;11.182;2023-06-14T03:09:39;11.90;87.70
11538;DHT22;50159;49.426;11.182;2023-06-14T03:12:06;11.90;88.30
11538;DHT22;50159;49.426;11.182;2023-06-14T03:14:33;11.90;88.90
11538;DHT22;50159;49.426;11.182;2023-06-14T03:17:02;11.80;89.30
11538;DHT22;50159;49.426;11.182;2023-06-14T03:19:29;11.80;89.70
11538;DHT22;50159;49.426;11.182;2023-06-14T03:21:55;11.70;90.00
11538;DHT22;50159;49.426;11.182;2023-06-14T03:24:24;11.70;90.10
11538;DHT22;50159;49.426;11.182;2023-06-14T03:26:51;11.70;90.20
11538;DHT22;50159;49.426;11.182;2023-06-14T03:29:18;11.70;90.40
11538;DHT22;50159;49.426;11.182;2023-06-14T03:34:24;11.60;90.90
11538;DHT22;50159;49.426;11.182;2023-06-14T03:36:51;11.60;91.20
11538;DHT22;50159;49.426;11.182;2023-06-14T03:39:19;11.60;91.30
11538;DHT22;50159;49.426;11.182;2023-06-14T03:41:46;11.60;91.40
11538;DHT22;50159;49.426;11.182;2023-06-14T03:44:17;11.60;91.50
11538;DHT22;50159;49.426;11.182;2023-06-14T03:46:45;11.50;91.60
11538;DHT22;50159;49.426;11.182;2023-06-14T03:49:12;11.60;91.90
11538;DHT22;50159;49.426;11.182;2023-06-14T03:51:39;11.50;91.90
11538;DHT22;50159;49.426;11.182;2023-06-14T03:54:07;11.50;92.00
11538;DHT22;50159;49.426;11.182;2023-06-14T03:56:53;11.50;92.20
11538;DHT22;50159;49.426;11.182;2023-06-14T03:59:20;11.60;92.80
11538;DHT22;50159;49.426;11.182;2023-06-14T04:01:47;11.60;92.90
11538;DHT22;50159;49.426;11.182;2023-06-14T04:04:15;11.60;93.10
11538;DHT22;50159;49.426;11.182;2023-06-14T04:06:45;11.60;93.10
11538;DHT22;50159;49.426;11.182;2023-06-14T04:09:14;11.60;93.20
11538;DHT22;50159;49.426;11.182;2023-06-14T04:11:41;11.60;93.30
11538;DHT22;50159;49.426;11.182;2023-06-14T04:14:08;11.70;93.70
11538;DHT22;50159;49.426;11.182;2023-06-14T04:16:34;11.70;93.90
11538;DHT22;50159;49.426;11.182;2023-06-14T04:19:01;11.70;94.10
11538;DHT22;50159;49.426;11.182;2023-06-14T04:21:28;11.70;94.40
11538;DHT22;50159;49.426;11.182;2023-06-14T04:23:55;11.70;94.50
11538;DHT22;50159;49.426;11.182;2023-06-14T04:26:22;11.80;94.80
11538;DHT22;50159;49.426;11.182;2023-06-14T04:28:56;11.80;94.90
11538;DHT22;50159;49.426;11.182;2023-06-14T04:31:29;11.90;95.30
11538;DHT22;50159;49.426;11.182;2023-06-14T04:33:56;12.00;95.40
11538;DHT22;50159;49.426;11.182;2023-06-14T04:36:23;12.00;95.40
11538;DHT22;50159;49.426;11.182;2023-06-14T04:38:50;12.00;95.60
11538;DHT22;50159;49.426;11.182;2023-06-14T04:41:21;12.00;95.80
11538;DHT22;50159;49.426;11.182;2023-06-14T04:43:49;12.00;96.00
11538;DHT22;50159;49.426;11.182;2023-06-14T04:46:16;12.00;95.90
11538;DHT22;50159;49.426;11.182;2023-06-14T04:48:43;12.00;95.80
11538;DHT22;50159;49.426;11.182;2023-06-14T04:51:12;12.10;95.80
11538;DHT22;50159;49.426;11.182;2023-06-14T04:53:39;12.10;96.00
11538;DHT22;50159;49.426;11.182;2023-06-14T04:56:06;12.10;96.20
11538;DHT22;50159;49.426;11.182;2023-06-14T04:58:33;12.20;96.20
11538;DHT22;50159;49.426;11.182;2023-06-14T05:01:00;12.40;96.00
11538;DHT22;50159;49.426;11.182;2023-06-14T05:03:28;12.50;95.90
11538;DHT22;50159;49.426;11.182;2023-06-14T05:05:57;12.50;95.80
11538;DHT22;50159;49.426;11.182;2023-06-14T05:08:23;12.70;95.90
11538;DHT22;50159;49.426;11.182;2023-06-14T05:10:50;12.80;95.90
11538;DHT22;50159;49.426;11.182;2023-06-14T05:13:18;12.90;95.70
11538;DHT22;50159;49.426;11.182;2023-06-14T05:15:44;13.10;95.60
11538;DHT22;50159;49.426;11.182;2023-06-14T05:18:12;13.20;95.40
11538;DHT22;50159;49.426;11.182;2023-06-14T05:20:40;13.40;95.00
11538;DHT22;50159;49.426;11.182;2023-06-14T05:23:09;13.50;94.60
11538;DHT22;50159;49.426;11.182;2023-06-14T05:25:45;13.70;94.20
11538;DHT22;50159;49.426;11.182;2023-06-14T05:28:12;13.90;93.70
11538;DHT22;50159;49.426;11.182;2023-06-14T05:30:39;14.10;93.20
11538;DHT22;50159;49.426;11.182;2023-06-14T05:33:08;14.20;92.40
11538;DHT22;50159;49.426;11.182;2023-06-14T05:35:35;14.30;92.10
11538;DHT22;50159;49.426;11.182;2023-06-14T05:38:02;14.30;91.80
11538;DHT22;50159;49.426;11.182;2023-06-14T05:40:28;14.40;91.70
11538;DHT22;50159;49.426;11.182;2023-06-14T05:42:55;14.60;91.60
11538;DHT22;50159;49.426;11.182;2023-06-14T05:45:22;14.70;91.10
11538;DHT22;50159;49.426;11.182;2023-06-14T05:47:49;14.90;90.90
11538;DHT22;50159;49.426;11.182;2023-06-14T05:50:17;15.10;90.30
11538;DHT22;50159;49.426;11.182;2023-06-14T05:52:43;15.30;89.40
11538;DHT22;50159;49.426;11.182;2023-06-14T05:55:10;15.50;88.20
11538;DHT22;50159;49.426;11.182;2023-06-14T05:57:39;15.60;87.00
11538;DHT22;50159;49.426;11.182;2023-06-14T06:00:07;15.80;86.70
11538;DHT22;50159;49.426;11.182;2023-06-14T06:02:37;15.90;85.60
11538;DHT22;50159;49.426;11.182;2023-06-14T06:05:05;15.90;85.00
11538;DHT22;50159;49.426;11.182;2023-06-14T06:07:32;15.90;83.90
11538;DHT22;50159;49.426;11.182;2023-06-14T06:10:03;16.00;84.80
11538;DHT22;50159;49.426;11.182;2023-06-14T06:12:30;16.10;84.10
11538;DHT22;50159;49.426;11.182;2023-06-14T06:14:57;16.10;83.20
11538;DHT22;50159;49.426;11.182;2023-06-14T06:17:25;16.10;83.30
11538;DHT22;50159;49.426;11.182;2023-06-14T06:19:51;16.10;83.10
11538;DHT22;50159;49.426;11.182;2023-06-14T06:22:18;16.20;83.00
11538;DHT22;50159;49.426;11.182;2023-06-14T06:24:45;16.40;83.70
11538;DHT22;50159;49.426;11.182;2023-06-14T06:27:12;16.50;81.40
11538;DHT22;50159;49.426;11.182;2023-06-14T06:29:39;16.50;80.10
11538;DHT22;50159;49.426;11.182;2023-06-14T06:32:06;16.50;80.20
11538;DHT22;50159;49.426;11.182;2023-06-14T06:34:33;16.50;80.20
11538;DHT22;50159;49.426;11.182;2023-06-14T06:36:59;16.50;80.10
11538;DHT22;50159;49.426;11.182;2023-06-14T06:39:27;16.60;79.90
11538;DHT22;50159;49.426;11.182;2023-06-14T06:41:53;16.70;78.30
11538;DHT22;50159;49.426;11.182;2023-06-14T06:44:20;16.90;76.40
11538;DHT22;50159;49.426;11.182;2023-06-14T06:46:47;17.00;76.30
11538;DHT22;50159;49.426;11.182;2023-06-14T06:49:13;17.20;74.90
11538;DHT22;50159;49.426;11.182;2023-06-14T06:51:52;17.40;74.00
11538;DHT22;50159;49.426;11.182;2023-06-14T06:54:25;17.70;73.00
11538;DHT22;50159;49.426;11.182;2023-06-14T06:56:51;17.90;72.90
11538;DHT22;50159;49.426;11.182;2023-06-14T06:59:18;18.10;71.50
11538;DHT22;50159;49.426;11.182;2023-06-14T07:01:45;18.30;70.30
11538;DHT22;50159;49.426;11.182;2023-06-14T07:04:12;18.40;69.10
11538;DHT22;50159;49.426;11.182;2023-06-14T07:06:39;18.40;67.80
11538;DHT22;50159;49.426;11.182;2023-06-14T07:09:06;18.60;67.00
11538;DHT22;50159;49.426;11.182;2023-06-14T07:11:34;18.70;66.30
11538;DHT22;50159;49.426;11.182;2023-06-14T07:14:01;18.80;65.70
11538;DHT22;50159;49.426;11.182;2023-06-14T07:16:28;18.90;64.00
11538;DHT22;50159;49.426;11.182;2023-06-14T07:18:54;19.00;64.10
11538;DHT22;50159;49.426;11.182;2023-06-14T07:21:21;19.10;63.80
11538;DHT22;50159;49.426;11.182;2023-06-14T07:23:48;19.30;63.90
11538;DHT22;50159;49.426;11.182;2023-06-14T07:26:15;19.40;63.60
11538;DHT22;50159;49.426;11.182;2023-06-14T07:28:41;19.50;62.30
11538;DHT22;50159;49.426;11.182;2023-06-14T07:31:11;19.60;61.90
11538;DHT22;50159;49.426;11.182;2023-06-14T07:33:40;19.70;61.90
11538;DHT22;50159;49.426;11.182;2023-06-14T07:36:07;19.80;61.20
11538;DHT22;50159;49.426;11.182;2023-06-14T07:38:34;20.00;61.10
11538;DHT22;50159;49.426;11.182;2023-06-14T07:41:00;20.00;59.90
11538;DHT22;50159;49.426;11.182;2023-06-14T07:43:28;20.10;60.20
11538;DHT22;50159;49.426;11.182;2023-06-14T07:45:54;20.20;59.90
11538;DHT22;50159;49.426;11.182;2023-06-14T07:48:33;20.30;59.60
11538;DHT22;50159;49.426;11.182;2023-06-14T07:51:00;20.50;59.50
11538;DHT22;50159;49.426;11.182;2023-06-14T07:53:28;20.60;57.50
11538;DHT22;50159;49.426;11.182;2023-06-14T07:55:55;20.70;56.90
11538;DHT22;50159;49.426;11.182;2023-06-14T07:58:21;20.70;54.60
11538;DHT22;50159;49.426;11.182;2023-06-14T08:00:48;20.70;54.40
11538;DHT22;50159;49.426;11.182;2023-06-14T08:03:15;20.80;54.10
11538;DHT22;50159;49.426;11.182;2023-06-14T08:05:42;20.90;54.40
11538;DHT22;50159;49.426;11.182;2023-06-14T08:08:09;21.00;55.20
11538;DHT22;50159;49.426;11.182;2023-06-14T08:10:36;21.20;55.30
11538;DHT22;50159;49.426;11.182;2023-06-14T08:13:02;21.30;55.00
11538;DHT22;50159;49.426;11.182;2023-06-14T08:15:29;21.40;54.20
11538;DHT22;50159;49.426;11.182;2023-06-14T08:17:56;21.50;53.70
11538;DHT22;50159;49.426;11.182;2023-06-14T08:20:23;21.50;53.20
11538;DHT22;50159;49.426;11.182;2023-06-14T08:22:50;21.50;52.60
11538;DHT22;50159;49.426;11.182;2023-06-14T08:25:21;21.60;51.50
11538;DHT22;50159;49.426;11.182;2023-06-14T08:27:48;21.60;51.70
11538;DHT22;50159;49.426;11.182;2023-06-14T08:30:16;21.70;50.70
11538;DHT22;50159;49.426;11.182;2023-06-14T08:32:44;21.80;50.10
11538;DHT22;50159;49.426;11.182;2023-06-14T08:35:11;21.90;49.90
11538;DHT22;50159;49.426;11.182;2023-06-14T08:37:40;22.00;49.80
11538;DHT22;50159;49.426;11.182;2023-06-14T08:40:21;22.10;48.70
11538;DHT22;50159;49.426;11.182;2023-06-14T08:42:55;22.20;48.20
11538;DHT22;50159;49.426;11.182;2023-06-14T08:45:23;22.30;48.00
11538;DHT22;50159;49.426;11.182;2023-06-14T08:47:53;22.30;47.40
11538;DHT22;50159;49.426;11.182;2023-06-14T08:50:26;22.30;47.50
11538;DHT22;50159;49.426;11.182;2023-06-14T08:52:58;22.40;47.70
11538;DHT22;50159;49.426;11.182;2023-06-14T08:55:30;22.50;48.60
11538;DHT22;50159;49.426;11.182;2023-06-14T08:58:01;22.60;47.80
11538;DHT22;50159;49.426;11.182;2023-06-14T09:00:29;22.70;48.00
11538;DHT22;50159;49.426;11.182;2023-06-14T09:02:57;22.80;47.00
11538;DHT22;50159;49.426;11.182;2023-06-14T09:05:26;22.90;46.90
11538;DHT22;50159;49.426;11.182;2023-06-14T09:07:54;23.00;46.30
11538;DHT22;50159;49.426;11.182;2023-06-14T09:10:31;23.00;46.30
11538;DHT22;50159;49.426;11.182;2023-06-14T09:13:03;23.10;46.10
11538;DHT22;50159;49.426;11.182;2023-06-14T09:15:30;23.10;45.90
11538;DHT22;50159;49.426;11.182;2023-06-14T09:17:58;22.70;46.10
11538;DHT22;50159;49.426;11.182;2023-06-14T09:20:29;22.70;47.50
11538;DHT22;50159;49.426;11.182;2023-06-14T09:22:56;22.80;47.50
11538;DHT22;50159;49.426;11.182;2023-06-14T09:25:23;22.90;47.20
11538;DHT22;50159;49.426;11.182;2023-06-14T09:28:07;22.80;46.90
11538;DHT22;50159;49.426;11.182;2023-06-14T09:30:36;22.70;47.10
11538;DHT22;50159;49.426;11.182;2023-06-14T09:33:03;22.70;47.80
11538;DHT22;50159;49.426;11.182;2023-06-14T09:35:33;22.90;46.80
11538;DHT22;50159;49.426;11.182;2023-06-14T09:38:00;23.00;46.20
11538;DHT22;50159;49.426;11.182;2023-06-14T09:40:27;23.10;46.20
11538;DHT22;50159;49.426;11.182;2023-06-14T09:42:54;23.30;45.50
11538;DHT22;50159;49.426;11.182;2023-06-14T09:45:25;23.40;44.50
11538;DHT22;50159;49.426;11.182;2023-06-14T09:47:55;23.10;43.50
11538;DHT22;50159;49.426;11.182;2023-06-14T09:50:34;22.90;45.10
11538;DHT22;50159;49.426;11.182;2023-06-14T09:53:09;23.00;46.30
11538;DHT22;50159;49.426;11.182;2023-06-14T09:55:37;22.80;44.80
11538;DHT22;50159;49.426;11.182;2023-06-14T09:58:06;22.70;45.20
11538;DHT22;50159;49.426;11.182;2023-06-14T10:00:35;22.70;45.10
11538;DHT22;50159;49.426;11.182;2023-06-14T10:03:14;22.60;44.60
11538;DHT22;50159;49.426;11.182;2023-06-14T10:05:44;22.40;45.00
11538;DHT22;50159;49.426;11.182;2023-06-14T10:08:16;22.20;45.70
11538;DHT22;50159;49.426;11.182;2023-06-14T10:10:45;22.10;46.50
11538;DHT22;50159;49.426;11.182;2023-06-14T10:13:12;21.90;45.60
11538;DHT22;50159;49.426;11.182;2023-06-14T10:16:08;21.80;46.50
11538;DHT22;50159;49.426;11.182;2023-06-14T10:21:18;21.70;45.80
11538;DHT22;50159;49.426;11.182;2023-06-14T10:23:49;21.60;46.10
11538;DHT22;50159;49.426;11.182;2023-06-14T10:26:22;21.70;46.20
11538;DHT22;50159;49.426;11.182;2023-06-14T10:29:08;21.80;46.40
11538;DHT22;50159;49.426;11.182;2023-06-14T10:31:45;21.80;46.70
11538;DHT22;50159;49.426;11.182;2023-06-14T10:34:12;21.80;46.80
11538;DHT22;50159;49.426;11.182;2023-06-14T10:37:06;21.80;46.70
11538;DHT22;50159;49.426;11.182;2023-06-14T10:39:41;21.70;45.50
11538;DHT22;50159;49.426;11.182;2023-06-14T10:42:09;21.80;46.70
11538;DHT22;50159;49.426;11.182;2023-06-14T10:47:20;21.90;46.00
11538;DHT22;50159;49.426;11.182;2023-06-14T10:49:50;21.90;45.90
11538;DHT22;50159;49.426;11.182;2023-06-14T10:52:22;22.00;44.70
11538;DHT22;50159;49.426;11.182;2023-06-14T10:55:08;22.20;45.30
11538;DHT22;50159;49.426;11.182;2023-06-14T10:57:42;22.50;44.50
11538;DHT22;50159;49.426;11.182;2023-06-14T11:00:13;23.20;44.50
11538;DHT22;50159;49.426;11.182;2023-06-14T11:05:15;24.50;42.50
11538;DHT22;50159;49.426;11.182;2023-06-14T11:07:52;24.80;41.20
11538;DHT22;50159;49.426;11.182;2023-06-14T11:12:57;24.80;39.60
11538;DHT22;50159;49.426;11.182;2023-06-14T11:15:29;24.60;40.40
11538;DHT22;50159;49.426;11.182;2023-06-14T11:17:57;24.70;40.20
11538;DHT22;50159;49.426;11.182;2023-06-14T11:20:29;24.50;40.00
11538;DHT22;50159;49.426;11.182;2023-06-14T11:22:56;24.30;40.70
11538;DHT22;50159;49.426;11.182;2023-06-14T11:25:23;24.10;40.20
11538;DHT22;50159;49.426;11.182;2023-06-14T11:27:50;24.10;40.70
11538;DHT22;50159;49.426;11.182;2023-06-14T11:30:17;24.20;41.70
11538;DHT22;50159;49.426;11.182;2023-06-14T11:32:48;24.50;41.40
11538;DHT22;50159;49.426;11.182;2023-06-14T11:35:17;24.60;40.70
11538;DHT22;50159;49.426;11.182;2023-06-14T11:37:45;24.70;41.50
11538;DHT22;50159;49.426;11.182;2023-06-14T11:40:12;24.80;41.00
11538;DHT22;50159;49.426;11.182;2023-06-14T11:42:40;25.20;41.50
11538;DHT22;50159;49.426;11.182;2023-06-14T11:45:08;25.70;39.80
11538;DHT22;50159;49.426;11.182;2023-06-14T11:47:41;25.80;39.20
11538;DHT22;50159;49.426;11.182;2023-06-14T11:50:09;25.80;39.30
11538;DHT22;50159;49.426;11.182;2023-06-14T11:52:37;26.20;39.70
11538;DHT22;50159;49.426;11.182;2023-06-14T11:55:05;26.00;36.80
11538;DHT22;50159;49.426;11.182;2023-06-14T11:57:35;25.70;37.90
11538;DHT22;50159;49.426;11.182;2023-06-14T12:00:09;25.40;38.10
11538;DHT22;50159;49.426;11.182;2023-06-14T12:02:39;25.10;38.90
11538;DHT22;50159;49.426;11.182;2023-06-14T12:05:08;24.80;39.30
11538;DHT22;50159;49.426;11.182;2023-06-14T12:07:37;24.60;40.20
11538;DHT22;50159;49.426;11.182;2023-06-14T12:10:07;24.40;39.70
11538;DHT22;50159;49.426;11.182;2023-06-14T12:12:36;24.20;39.30
11538;DHT22;50159;49.426;11.182;2023-06-14T12:15:07;24.10;38.30
11538;DHT22;50159;49.426;11.182;2023-06-14T12:17:35;23.80;38.00
11538;DHT22;50159;49.426;11.182;2023-06-14T12:20:10;23.70;39.10
11538;DHT22;50159;49.426;11.182;2023-06-14T12:22:37;23.60;39.30
11538;DHT22;50159;49.426;11.182;2023-06-14T12:25:04;23.60;39.10
11538;DHT22;50159;49.426;11.182;2023-06-14T12:27:32;23.50;38.90
11538;DHT22;50159;49.426;11.182;2023-06-14T12:30:00;23.50;39.10
11538;DHT22;50159;49.426;11.182;2023-06-14T12:32:28;23.50;39.60
11538;DHT22;50159;49.426;11.182;2023-06-14T12:34:55;23.50;39.30
11538;DHT22;50159;49.426;11.182;2023-06-14T12:37:22;23.60;39.90
11538;DHT22;50159;49.426;11.182;2023-06-14T12:39:48;23.60;40.40
11538;DHT22;50159;49.426;11.182;2023-06-14T12:42:17;23.70;40.90
11538;DHT22;50159;49.426;11.182;2023-06-14T12:44:44;23.70;39.40
11538;DHT22;50159;49.426;11.182;2023-06-14T12:47:10;23.80;39.60
11538;DHT22;50159;49.426;11.182;2023-06-14T12:49:38;23.80;38.80
11538;DHT22;50159;49.426;11.182;2023-06-14T12:52:07;24.30;39.20
11538;DHT22;50159;49.426;11.182;2023-06-14T12:54:33;24.80;36.50
11538;DHT22;50159;49.426;11.182;2023-06-14T12:57:07;24.90;33.90
11538;DHT22;50159;49.426;11.182;2023-06-14T12:59:34;25.00;35.50
11538;DHT22;50159;49.426;11.182;2023-06-14T13:02:17;25.10;35.10
11538;DHT22;50159;49.426;11.182;2023-06-14T13:04:44;25.00;36.10
11538;DHT22;50159;49.426;11.182;2023-06-14T13:07:11;25.00;36.90
11538;DHT22;50159;49.426;11.182;2023-06-14T13:09:38;25.00;37.70
11538;DHT22;50159;49.426;11.182;2023-06-14T13:12:05;24.90;38.80
11538;DHT22;50159;49.426;11.182;2023-06-14T13:14:32;24.80;39.80
11538;DHT22;50159;49.426;11.182;2023-06-14T13:16:59;24.60;40.20
11538;DHT22;50159;49.426;11.182;2023-06-14T13:19:25;24.50;40.90
11538;DHT22;50159;49.426;11.182;2023-06-14T13:21:52;24.40;39.50
11538;DHT22;50159;49.426;11.182;2023-06-14T13:24:19;24.20;40.10
11538;DHT22;50159;49.426;11.182;2023-06-14T13:26:46;24.20;40.10
11538;DHT22;50159;49.426;11.182;2023-06-14T13:29:12;24.20;41.00
11538;DHT22;50159;49.426;11.182;2023-06-14T13:31:39;24.10;40.40
11538;DHT22;50159;49.426;11.182;2023-06-14T13:34:06;24.00;39.60
11538;DHT22;50159;49.426;11.182;2023-06-14T13:36:33;23.90;40.30
11538;DHT22;50159;49.426;11.182;2023-06-14T13:39:00;23.90;40.60
11538;DHT22;50159;49.426;11.182;2023-06-14T13:41:28;23.90;41.00
11538;DHT22;50159;49.426;11.182;2023-06-14T13:43:58;23.90;41.10
11538;DHT22;50159;49.426;11.182;2023-06-14T13:46:25;23.80;40.30
11538;DHT22;50159;49.426;11.182;2023-06-14T13:48:52;23.90;40.60
11538;DHT22;50159;49.426;11.182;2023-06-14T13:51:19;24.00;40.40
11538;DHT22;50159;49.426;11.182;2023-06-14T13:53:48;24.00;40.70
11538;DHT22;50159;49.426;11.182;2023-06-14T13:56:15;24.00;40.30
11538;DHT22;50159;49.426;11.182;2023-06-14T13:58:42;24.00;40.30
11538;DHT22;50159;49.426;11.182;2023-06-14T14:01:09;24.00;39.80
11538;DHT22;50159;49.426;11.182;2023-06-14T14:03:36;24.00;40.40
11538;DHT22;50159;49.426;11.182;2023-06-14T14:06:03;24.20;41.30
11538;DHT22;50159;49.426;11.182;2023-06-14T14:08:30;24.20;40.60
11538;DHT22;50159;49.426;11.182;2023-06-14T14:10:58;24.20;40.30
11538;DHT22;50159;49.426;11.182;2023-06-14T14:13:24;24.20;40.20
11538;DHT22;50159;49.426;11.182;2023-06-14T14:15:51;24.30;41.00
11538;DHT22;50159;49.426;11.182;2023-06-14T14:18:19;24.40;40.20
11538;DHT22;50159;49.426;11.182;2023-06-14T14:20:48;24.50;40.20
11538;DHT22;50159;49.426;11.182;2023-06-14T14:23:15;24.60;39.70
11538;DHT22;50159;49.426;11.182;2023-06-14T14:25:42;24.70;40.30
11538;DHT22;50159;49.426;11.182;2023-06-14T14:28:08;24.80;39.70
11538;DHT22;50159;49.426;11.182;2023-06-14T14:30:35;24.90;40.20
11538;DHT22;50159;49.426;11.182;2023-06-14T14:33:06;26.20;38.20
11538;DHT22;50159;49.426;11.182;2023-06-14T14:38:00;27.50;35.90
11538;DHT22;50159;49.426;11.182;2023-06-14T14:40:29;28.50;32.30
11538;DHT22;50159;49.426;11.182;2023-06-14T14:42:56;27.70;32.60
11538;DHT22;50159;49.426;11.182;2023-06-14T14:45:23;26.90;33.90
11538;DHT22;50159;49.426;11.182;2023-06-14T14:47:49;26.10;34.90
11538;DHT22;50159;49.426;11.182;2023-06-14T14:50:17;25.50;36.70
11538;DHT22;50159;49.426;11.182;2023-06-14T14:52:44;25.10;37.70
11538;DHT22;50159;49.426;11.182;2023-06-14T14:55:12;24.70;38.30
11538;DHT22;50159;49.426;11.182;2023-06-14T14:57:38;24.40;38.40
11538;DHT22;50159;49.426;11.182;2023-06-14T15:00:06;24.20;38.50
11538;DHT22;50159;49.426;11.182;2023-06-14T15:02:33;24.00;39.10
11538;DHT22;50159;49.426;11.182;2023-06-14T15:04:59;23.90;39.70
11538;DHT22;50159;49.426;11.182;2023-06-14T15:07:28;23.80;39.50
11538;DHT22;50159;49.426;11.182;2023-06-14T15:09:55;23.80;39.70
11538;DHT22;50159;49.426;11.182;2023-06-14T15:12:21;23.80;40.60
11538;DHT22;50159;49.426;11.182;2023-06-14T15:14:53;23.80;40.20
11538;DHT22;50159;49.426;11.182;2023-06-14T15:17:20;23.90;41.00
11538;DHT22;50159;49.426;11.182;2023-06-14T15:19:47;23.90;41.40
11538;DHT22;50159;49.426;11.182;2023-06-14T15:22:15;24.00;39.90
11538;DHT22;50159;49.426;11.182;2023-06-14T15:24:42;24.10;39.50
11538;DHT22;50159;49.426;11.182;2023-06-14T15:27:11;24.30;39.90
11538;DHT22;50159;49.426;11.182;2023-06-14T15:29:42;24.60;39.70
11538;DHT22;50159;49.426;11.182;2023-06-14T15:32:09;25.00;38.70
11538;DHT22;50159;49.426;11.182;2023-06-14T15:34:36;25.10;37.80
11538;DHT22;50159;49.426;11.182;2023-06-14T15:37:05;24.90;37.30
11538;DHT22;50159;49.426;11.182;2023-06-14T15:39:32;24.80;37.30